sensor_id;sensor_type;location;lat;lon;timestamp;P1;durP1;ratioP1;P2;durP2;ratioP2
4694;SDS011;2361;49.540;8.390;2023-06-24T00:01:15;2.67;;;2.47;;
4694;SDS011;2361;49.540;8.390;2023-06-24T00:03:42;1.90;;;1.80;;
4694;SDS011;2361;49.540;8.390;2023-06-24T00:06:13;1.97;;;1.87;;
4694;SDS011;2361;49.540;8.390;2023-06-24T00:08:44;2.20;;;2.10;;
4694;SDS011;2361;49.540;8.390;2023-06-24T00:11:12;2.67;;;2.47;;
4694;SDS011;2361;49.540;8.390;2023-06-24T00:13:40;2.60;;;2.40;;
4694;SDS011;2361;49.540;8.390;2023-06-24T00:16:09;3.90;;;2.53;;
4694;SDS011;2361;49.540;8.390;2023-06-24T00:18:37;2.50;;;2.30;;
4694;SDS011;2361;49.540;8.390;2023-06-24T00:21:07;2.77;;;2.47;;
4694;SDS011;2361;49.540;8.390;2023-06-24T00:23:34;2.70;;;2.50;;
4694;SDS011;2361;49.540;8.390;2023-06-24T00:26:01;3.10;;;2.60;;
4694;SDS011;2361;49.540;8.390;2023-06-24T00:28:29;2.70;;;2.50;;
4694;SDS011;2361;49.540;8.390;2023-06-24T00:30:56;6.30;;;2.63;;
4694;SDS011;2361;49.540;8.390;2023-06-24T00:33:23;2.47;;;2.37;;
4694;SDS011;2361;49.540;8.390;2023-06-24T00:35:50;2.57;;;2.40;;
4694;SDS011;2361;49.540;8.390;2023-06-24T00:38:17;3.73;;;3.30;;
4694;SDS011;2361;49.540;8.390;2023-06-24T00:40:43;2.63;;;2.43;;
4694;SDS011;2361;49.540;8.390;2023-06-24T00:43:12;3.90;;;2.37;;
4694;SDS011;2361;49.540;8.390;2023-06-24T00:45:39;3.47;;;2.40;;
4694;SDS011;2361;49.540;8.390;2023-06-24T00:48:06;2.50;;;2.30;;
4694;SDS011;2361;49.540;8.390;2023-06-24T00:50:33;3.10;;;2.60;;
4694;SDS011;2361;49.540;8.390;2023-06-24T00:53:03;2.47;;;2.30;;
4694;SDS011;2361;49.540;8.390;2023-06-24T00:55:30;2.33;;;2.13;;
4694;SDS011;2361;49.540;8.390;2023-06-24T00:57:57;2.50;;;2.30;;
4694;SDS011;2361;49.540;8.390;2023-06-24T01:00:26;2.87;;;2.53;;
4694;SDS011;2361;49.540;8.390;2023-06-24T01:02:53;3.30;;;2.73;;
4694;SDS011;2361;49.540;8.390;2023-06-24T01:05:20;7.43;;;2.70;;
4694;SDS011;2361;49.540;8.390;2023-06-24T01:07:50;2.00;;;1.90;;
4694;SDS011;2361;49.540;8.390;2023-06-24T01:10:22;2.90;;;2.70;;
4694;SDS011;2361;49.540;8.390;2023-06-24T01:12:49;2.60;;;2.40;;
4694;SDS011;2361;49.540;8.390;2023-06-24T01:15:17;3.77;;;2.57;;
4694;SDS011;2361;49.540;8.390;2023-06-24T01:17:53;2.50;;;2.33;;
4694;SDS011;2361;49.540;8.390;2023-06-24T01:26:21;2.70;;;2.30;;
4694;SDS011;2361;49.540;8.390;2023-06-24T01:34:56;2.20;;;2.10;;
4694;SDS011;2361;49.540;8.390;2023-06-24T01:37:44;2.70;;;2.23;;
4694;SDS011;2361;49.540;8.390;2023-06-24T01:40:37;2.33;;;2.10;;
4694;SDS011;2361;49.540;8.390;2023-06-24T01:43:08;2.00;;;1.90;;
4694;SDS011;2361;49.540;8.390;2023-06-24T01:45:43;2.13;;;2.00;;
4694;SDS011;2361;49.540;8.390;2023-06-24T01:48:15;5.27;;;2.23;;
4694;SDS011;2361;49.540;8.390;2023-06-24T01:50:54;1.83;;;1.73;;
4694;SDS011;2361;49.540;8.390;2023-06-24T01:53:32;2.63;;;2.27;;
4694;SDS011;2361;49.540;8.390;2023-06-24T01:56:05;2.20;;;2.00;;
4694;SDS011;2361;49.540;8.390;2023-06-24T01:58:36;2.43;;;2.30;;
4694;SDS011;2361;49.540;8.390;2023-06-24T02:01:04;2.30;;;2.10;;
4694;SDS011;2361;49.540;8.390;2023-06-24T02:03:32;2.20;;;2.10;;
4694;SDS011;2361;49.540;8.390;2023-06-24T02:06:00;2.60;;;2.40;;
4694;SDS011;2361;49.540;8.390;2023-06-24T02:08:29;3.40;;;2.90;;
4694;SDS011;2361;49.540;8.390;2023-06-24T02:11:02;2.00;;;1.90;;
4694;SDS011;2361;49.540;8.390;2023-06-24T02:13:31;4.27;;;2.83;;
4694;SDS011;2361;49.540;8.390;2023-06-24T02:16:02;2.83;;;2.63;;
4694;SDS011;2361;49.540;8.390;2023-06-24T02:18:33;3.97;;;2.83;;
4694;SDS011;2361;49.540;8.390;2023-06-24T02:21:02;3.70;;;2.60;;
4694;SDS011;2361;49.540;8.390;2023-06-24T02:23:30;2.80;;;2.53;;
4694;SDS011;2361;49.540;8.390;2023-06-24T02:26:00;3.43;;;3.00;;
4694;SDS011;2361;49.540;8.390;2023-06-24T02:28:28;2.37;;;2.23;;
4694;SDS011;2361;49.540;8.390;2023-06-24T02:30:56;2.80;;;2.60;;
4694;SDS011;2361;49.540;8.390;2023-06-24T02:33:25;3.93;;;2.83;;
4694;SDS011;2361;49.540;8.390;2023-06-24T02:35:52;2.83;;;2.47;;
4694;SDS011;2361;49.540;8.390;2023-06-24T02:38:20;3.80;;;2.80;;
4694;SDS011;2361;49.540;8.390;2023-06-24T02:40:47;2.97;;;2.77;;
4694;SDS011;2361;49.540;8.390;2023-06-24T02:43:17;3.90;;;3.60;;
4694;SDS011;2361;49.540;8.390;2023-06-24T02:45:45;3.20;;;2.87;;
4694;SDS011;2361;49.540;8.390;2023-06-24T02:48:13;5.20;;;3.50;;
4694;SDS011;2361;49.540;8.390;2023-06-24T02:50:41;4.20;;;3.20;;
4694;SDS011;2361;49.540;8.390;2023-06-24T02:53:10;10.83;;;3.20;;
4694;SDS011;2361;49.540;8.390;2023-06-24T02:55:39;3.23;;;2.93;;
4694;SDS011;2361;49.540;8.390;2023-06-24T02:58:08;2.87;;;2.67;;
4694;SDS011;2361;49.540;8.390;2023-06-24T03:00:36;4.70;;;3.30;;
4694;SDS011;2361;49.540;8.390;2023-06-24T03:03:04;3.70;;;3.33;;
4694;SDS011;2361;49.540;8.390;2023-06-24T03:05:33;5.80;;;3.63;;
4694;SDS011;2361;49.540;8.390;2023-06-24T03:08:01;3.07;;;2.63;;
4694;SDS011;2361;49.540;8.390;2023-06-24T03:10:32;3.60;;;3.10;;
4694;SDS011;2361;49.540;8.390;2023-06-24T03:12:59;3.40;;;2.63;;
4694;SDS011;2361;49.540;8.390;2023-06-24T03:15:26;3.97;;;3.07;;
4694;SDS011;2361;49.540;8.390;2023-06-24T03:17:56;4.00;;;2.97;;
4694;SDS011;2361;49.540;8.390;2023-06-24T03:20:23;3.30;;;3.00;;
4694;SDS011;2361;49.540;8.390;2023-06-24T03:22:50;4.17;;;3.00;;
4694;SDS011;2361;49.540;8.390;2023-06-24T03:25:18;3.60;;;3.20;;
4694;SDS011;2361;49.540;8.390;2023-06-24T03:27:45;3.07;;;2.80;;
4694;SDS011;2361;49.540;8.390;2023-06-24T03:30:12;3.70;;;3.40;;
4694;SDS011;2361;49.540;8.390;2023-06-24T03:32:42;2.80;;;2.50;;
4694;SDS011;2361;49.540;8.390;2023-06-24T03:35:13;3.43;;;3.03;;
4694;SDS011;2361;49.540;8.390;2023-06-24T03:37:40;2.80;;;2.60;;
4694;SDS011;2361;49.540;8.390;2023-06-24T03:40:07;3.27;;;3.00;;
4694;SDS011;2361;49.540;8.390;2023-06-24T03:42:35;4.00;;;3.60;;
4694;SDS011;2361;49.540;8.390;2023-06-24T03:45:02;3.43;;;3.17;;
4694;SDS011;2361;49.540;8.390;2023-06-24T03:47:30;3.97;;;3.57;;
4694;SDS011;2361;49.540;8.390;2023-06-24T03:49:57;3.00;;;2.70;;
4694;SDS011;2361;49.540;8.390;2023-06-24T03:52:24;3.17;;;2.97;;
4694;SDS011;2361;49.540;8.390;2023-06-24T03:54:52;2.97;;;2.73;;
4694;SDS011;2361;49.540;8.390;2023-06-24T03:57:19;8.53;;;3.17;;
4694;SDS011;2361;49.540;8.390;2023-06-24T03:59:47;2.90;;;2.73;;
4694;SDS011;2361;49.540;8.390;2023-06-24T04:02:14;2.83;;;2.60;;
4694;SDS011;2361;49.540;8.390;2023-06-24T04:04:41;3.80;;;3.17;;
4694;SDS011;2361;49.540;8.390;2023-06-24T04:07:08;3.43;;;2.93;;
4694;SDS011;2361;49.540;8.390;2023-06-24T04:09:36;5.80;;;3.50;;
4694;SDS011;2361;49.540;8.390;2023-06-24T04:12:03;3.77;;;3.20;;
4694;SDS011;2361;49.540;8.390;2023-06-24T04:14:30;3.43;;;3.13;;
4694;SDS011;2361;49.540;8.390;2023-06-24T04:16:57;3.40;;;3.10;;
4694;SDS011;2361;49.540;8.390;2023-06-24T04:19:24;2.90;;;2.70;;
4694;SDS011;2361;49.540;8.390;2023-06-24T04:21:51;3.40;;;2.50;;
4694;SDS011;2361;49.540;8.390;2023-06-24T04:24:18;2.90;;;2.70;;
4694;SDS011;2361;49.540;8.390;2023-06-24T04:26:45;3.80;;;3.43;;
4694;SDS011;2361;49.540;8.390;2023-06-24T04:29:12;3.90;;;2.87;;
4694;SDS011;2361;49.540;8.390;2023-06-24T04:31:39;3.40;;;3.10;;
4694;SDS011;2361;49.540;8.390;2023-06-24T04:34:06;3.30;;;3.00;;
4694;SDS011;2361;49.540;8.390;2023-06-24T04:36:33;3.27;;;2.90;;
4694;SDS011;2361;49.540;8.390;2023-06-24T04:39:01;3.53;;;3.20;;
4694;SDS011;2361;49.540;8.390;2023-06-24T04:41:28;3.53;;;3.00;;
4694;SDS011;2361;49.540;8.390;2023-06-24T04:43:55;3.27;;;2.83;;
4694;SDS011;2361;49.540;8.390;2023-06-24T04:46:22;3.17;;;2.90;;
4694;SDS011;2361;49.540;8.390;2023-06-24T04:48:49;5.77;;;3.63;;
4694;SDS011;2361;49.540;8.390;2023-06-24T04:51:16;4.30;;;3.90;;
4694;SDS011;2361;49.540;8.390;2023-06-24T04:53:44;4.93;;;3.60;;
4694;SDS011;2361;49.540;8.390;2023-06-24T04:56:11;3.60;;;3.30;;
4694;SDS011;2361;49.540;8.390;2023-06-24T04:58:38;4.23;;;3.73;;
4694;SDS011;2361;49.540;8.390;2023-06-24T05:01:05;4.20;;;3.40;;
4694;SDS011;2361;49.540;8.390;2023-06-24T05:03:32;4.17;;;3.77;;
4694;SDS011;2361;49.540;8.390;2023-06-24T05:05:59;3.30;;;3.07;;
4694;SDS011;2361;49.540;8.390;2023-06-24T05:08:26;3.90;;;3.60;;
4694;SDS011;2361;49.540;8.390;2023-06-24T05:10:52;4.30;;;3.80;;
4694;SDS011;2361;49.540;8.390;2023-06-24T05:13:20;4.47;;;4.00;;
4694;SDS011;2361;49.540;8.390;2023-06-24T05:15:49;3.57;;;3.30;;
4694;SDS011;2361;49.540;8.390;2023-06-24T05:18:16;3.90;;;3.50;;
4694;SDS011;2361;49.540;8.390;2023-06-24T05:20:43;5.97;;;4.53;;
4694;SDS011;2361;49.540;8.390;2023-06-24T05:23:10;6.27;;;4.40;;
4694;SDS011;2361;49.540;8.390;2023-06-24T05:25:37;4.43;;;4.07;;
4694;SDS011;2361;49.540;8.390;2023-06-24T05:28:04;3.97;;;3.57;;
4694;SDS011;2361;49.540;8.390;2023-06-24T05:30:31;4.17;;;3.73;;
4694;SDS011;2361;49.540;8.390;2023-06-24T05:32:58;6.70;;;4.50;;
4694;SDS011;2361;49.540;8.390;2023-06-24T05:35:25;4.53;;;4.07;;
4694;SDS011;2361;49.540;8.390;2023-06-24T05:37:52;6.07;;;4.37;;
4694;SDS011;2361;49.540;8.390;2023-06-24T05:40:19;4.83;;;4.27;;
4694;SDS011;2361;49.540;8.390;2023-06-24T05:42:46;5.37;;;3.77;;
4694;SDS011;2361;49.540;8.390;2023-06-24T05:45:13;5.20;;;3.93;;
4694;SDS011;2361;49.540;8.390;2023-06-24T05:47:41;6.30;;;4.10;;
4694;SDS011;2361;49.540;8.390;2023-06-24T05:50:08;3.80;;;3.50;;
4694;SDS011;2361;49.540;8.390;2023-06-24T05:52:35;5.17;;;4.13;;
4694;SDS011;2361;49.540;8.390;2023-06-24T05:55:02;6.10;;;4.03;;
4694;SDS011;2361;49.540;8.390;2023-06-24T05:57:30;5.53;;;4.47;;
4694;SDS011;2361;49.540;8.390;2023-06-24T05:59:57;3.30;;;3.00;;
4694;SDS011;2361;49.540;8.390;2023-06-24T06:02:24;4.00;;;3.53;;
4694;SDS011;2361;49.540;8.390;2023-06-24T06:04:51;3.77;;;3.43;;
4694;SDS011;2361;49.540;8.390;2023-06-24T06:07:18;4.77;;;3.97;;
4694;SDS011;2361;49.540;8.390;2023-06-24T06:09:45;6.70;;;4.70;;
4694;SDS011;2361;49.540;8.390;2023-06-24T06:12:12;4.30;;;2.83;;
4694;SDS011;2361;49.540;8.390;2023-06-24T06:14:39;4.70;;;4.00;;
4694;SDS011;2361;49.540;8.390;2023-06-24T06:17:09;5.60;;;4.10;;
4694;SDS011;2361;49.540;8.390;2023-06-24T06:19:36;3.57;;;3.27;;
4694;SDS011;2361;49.540;8.390;2023-06-24T06:22:05;4.50;;;3.30;;
4694;SDS011;2361;49.540;8.390;2023-06-24T06:24:33;5.40;;;4.47;;
4694;SDS011;2361;49.540;8.390;2023-06-24T06:27:00;5.60;;;4.63;;
4694;SDS011;2361;49.540;8.390;2023-06-24T06:29:27;6.43;;;5.00;;
4694;SDS011;2361;49.540;8.390;2023-06-24T06:31:54;9.17;;;5.23;;
4694;SDS011;2361;49.540;8.390;2023-06-24T06:34:23;6.10;;;4.90;;
4694;SDS011;2361;49.540;8.390;2023-06-24T06:36:50;5.63;;;4.87;;
4694;SDS011;2361;49.540;8.390;2023-06-24T06:39:17;7.10;;;5.13;;
4694;SDS011;2361;49.540;8.390;2023-06-24T06:41:44;4.13;;;3.80;;
4694;SDS011;2361;49.540;8.390;2023-06-24T06:44:11;5.53;;;4.40;;
4694;SDS011;2361;49.540;8.390;2023-06-24T06:46:38;3.87;;;3.53;;
4694;SDS011;2361;49.540;8.390;2023-06-24T06:49:05;6.20;;;4.67;;
4694;SDS011;2361;49.540;8.390;2023-06-24T06:51:32;7.33;;;4.30;;
4694;SDS011;2361;49.540;8.390;2023-06-24T06:54:00;4.33;;;3.93;;
4694;SDS011;2361;49.540;8.390;2023-06-24T06:56:27;4.60;;;3.70;;
4694;SDS011;2361;49.540;8.390;2023-06-24T06:58:54;3.00;;;2.80;;
4694;SDS011;2361;49.540;8.390;2023-06-24T07:01:21;3.23;;;3.03;;
4694;SDS011;2361;49.540;8.390;2023-06-24T07:03:49;2.50;;;2.40;;
4694;SDS011;2361;49.540;8.390;2023-06-24T07:06:20;2.20;;;2.10;;
4694;SDS011;2361;49.540;8.390;2023-06-24T07:08:47;2.50;;;2.40;;
4694;SDS011;2361;49.540;8.390;2023-06-24T07:11:14;2.30;;;2.20;;
4694;SDS011;2361;49.540;8.390;2023-06-24T07:13:41;3.20;;;3.00;;
4694;SDS011;2361;49.540;8.390;2023-06-24T07:16:08;3.63;;;2.70;;
4694;SDS011;2361;49.540;8.390;2023-06-24T07:18:35;3.47;;;3.17;;
4694;SDS011;2361;49.540;8.390;2023-06-24T07:21:02;3.10;;;2.87;;
4694;SDS011;2361;49.540;8.390;2023-06-24T07:23:29;2.87;;;2.67;;
4694;SDS011;2361;49.540;8.390;2023-06-24T07:25:57;3.27;;;3.07;;
4694;SDS011;2361;49.540;8.390;2023-06-24T07:28:25;2.67;;;2.57;;
4694;SDS011;2361;49.540;8.390;2023-06-24T07:30:52;3.60;;;3.40;;
4694;SDS011;2361;49.540;8.390;2023-06-24T07:33:19;3.00;;;2.80;;
4694;SDS011;2361;49.540;8.390;2023-06-24T07:35:46;2.90;;;2.70;;
4694;SDS011;2361;49.540;8.390;2023-06-24T07:38:13;3.30;;;3.00;;
4694;SDS011;2361;49.540;8.390;2023-06-24T07:40:40;3.63;;;3.23;;
4694;SDS011;2361;49.540;8.390;2023-06-24T07:43:07;3.70;;;3.50;;
4694;SDS011;2361;49.540;8.390;2023-06-24T07:45:34;3.63;;;3.30;;
4694;SDS011;2361;49.540;8.390;2023-06-24T07:48:02;3.17;;;2.93;;
4694;SDS011;2361;49.540;8.390;2023-06-24T07:50:29;2.87;;;2.70;;
4694;SDS011;2361;49.540;8.390;2023-06-24T07:52:57;3.40;;;3.10;;
4694;SDS011;2361;49.540;8.390;2023-06-24T07:55:24;3.10;;;3.00;;
4694;SDS011;2361;49.540;8.390;2023-06-24T07:57:51;3.37;;;3.17;;
4694;SDS011;2361;49.540;8.390;2023-06-24T08:00:18;3.57;;;3.37;;
4694;SDS011;2361;49.540;8.390;2023-06-24T08:02:45;4.00;;;3.70;;
4694;SDS011;2361;49.540;8.390;2023-06-24T08:05:12;3.50;;;3.30;;
4694;SDS011;2361;49.540;8.390;2023-06-24T08:07:39;3.10;;;2.90;;
4694;SDS011;2361;49.540;8.390;2023-06-24T08:10:06;2.77;;;2.63;;
4694;SDS011;2361;49.540;8.390;2023-06-24T08:12:34;2.60;;;2.50;;
4694;SDS011;2361;49.540;8.390;2023-06-24T08:15:04;3.37;;;3.17;;
4694;SDS011;2361;49.540;8.390;2023-06-24T08:17:32;4.93;;;4.50;;
4694;SDS011;2361;49.540;8.390;2023-06-24T08:20:02;5.40;;;5.00;;
4694;SDS011;2361;49.540;8.390;2023-06-24T08:22:30;2.90;;;2.80;;
4694;SDS011;2361;49.540;8.390;2023-06-24T08:24:58;3.20;;;3.00;;
4694;SDS011;2361;49.540;8.390;2023-06-24T08:27:25;2.70;;;2.60;;
4694;SDS011;2361;49.540;8.390;2023-06-24T08:29:52;3.30;;;3.10;;
4694;SDS011;2361;49.540;8.390;2023-06-24T08:32:19;3.00;;;2.90;;
4694;SDS011;2361;49.540;8.390;2023-06-24T08:34:46;3.30;;;3.20;;
4694;SDS011;2361;49.540;8.390;2023-06-24T08:37:13;3.20;;;3.10;;
4694;SDS011;2361;49.540;8.390;2023-06-24T08:39:40;5.27;;;2.97;;
4694;SDS011;2361;49.540;8.390;2023-06-24T08:42:07;3.30;;;3.10;;
4694;SDS011;2361;49.540;8.390;2023-06-24T08:44:34;3.23;;;3.03;;
4694;SDS011;2361;49.540;8.390;2023-06-24T08:47:01;3.20;;;3.10;;
4694;SDS011;2361;49.540;8.390;2023-06-24T08:49:31;3.30;;;3.10;;
4694;SDS011;2361;49.540;8.390;2023-06-24T08:52:06;3.27;;;3.17;;
4694;SDS011;2361;49.540;8.390;2023-06-24T08:54:39;2.70;;;2.60;;
4694;SDS011;2361;49.540;8.390;2023-06-24T08:57:10;2.93;;;2.83;;
4694;SDS011;2361;49.540;8.390;2023-06-24T08:59:41;2.37;;;2.27;;
4694;SDS011;2361;49.540;8.390;2023-06-24T09:02:08;2.90;;;2.80;;
4694;SDS011;2361;49.540;8.390;2023-06-24T09:04:37;2.80;;;2.70;;
4694;SDS011;2361;49.540;8.390;2023-06-24T09:07:04;3.17;;;2.97;;
4694;SDS011;2361;49.540;8.390;2023-06-24T09:09:33;3.30;;;3.20;;
4694;SDS011;2361;49.540;8.390;2023-06-24T09:12:11;2.67;;;2.57;;
4694;SDS011;2361;49.540;8.390;2023-06-24T09:14:41;3.20;;;2.80;;
4694;SDS011;2361;49.540;8.390;2023-06-24T09:17:14;3.03;;;2.93;;
4694;SDS011;2361;49.540;8.390;2023-06-24T09:19:41;2.37;;;2.37;;
4694;SDS011;2361;49.540;8.390;2023-06-24T09:22:08;3.03;;;3.00;;
4694;SDS011;2361;49.540;8.390;2023-06-24T09:24:47;3.37;;;3.17;;
4694;SDS011;2361;49.540;8.390;2023-06-24T09:27:15;3.60;;;3.50;;
4694;SDS011;2361;49.540;8.390;2023-06-24T09:29:46;2.60;;;2.60;;
4694;SDS011;2361;49.540;8.390;2023-06-24T09:32:13;3.00;;;2.90;;
4694;SDS011;2361;49.540;8.390;2023-06-24T09:34:41;2.97;;;2.87;;
4694;SDS011;2361;49.540;8.390;2023-06-24T09:37:08;2.40;;;2.40;;
4694;SDS011;2361;49.540;8.390;2023-06-24T09:39:39;2.47;;;2.47;;
4694;SDS011;2361;49.540;8.390;2023-06-24T09:42:06;3.10;;;3.00;;
4694;SDS011;2361;49.540;8.390;2023-06-24T09:44:35;3.17;;;2.60;;
4694;SDS011;2361;49.540;8.390;2023-06-24T09:47:02;3.20;;;3.10;;
4694;SDS011;2361;49.540;8.390;2023-06-24T09:49:29;2.40;;;2.40;;
4694;SDS011;2361;49.540;8.390;2023-06-24T09:51:57;2.90;;;2.80;;
4694;SDS011;2361;49.540;8.390;2023-06-24T09:54:26;3.83;;;3.63;;
4694;SDS011;2361;49.540;8.390;2023-06-24T09:56:59;3.27;;;3.17;;
4694;SDS011;2361;49.540;8.390;2023-06-24T09:59:30;3.30;;;3.17;;
4694;SDS011;2361;49.540;8.390;2023-06-24T10:02:00;3.47;;;3.30;;
4694;SDS011;2361;49.540;8.390;2023-06-24T10:04:28;3.70;;;3.50;;
4694;SDS011;2361;49.540;8.390;2023-06-24T10:06:57;3.37;;;3.17;;
4694;SDS011;2361;49.540;8.390;2023-06-24T10:09:25;2.90;;;2.80;;
4694;SDS011;2361;49.540;8.390;2023-06-24T10:11:52;2.70;;;2.60;;
4694;SDS011;2361;49.540;8.390;2023-06-24T10:14:19;2.37;;;2.37;;
4694;SDS011;2361;49.540;8.390;2023-06-24T10:16:46;2.80;;;2.70;;
4694;SDS011;2361;49.540;8.390;2023-06-24T10:19:20;3.03;;;2.83;;
4694;SDS011;2361;49.540;8.390;2023-06-24T10:21:53;2.80;;;2.70;;
4694;SDS011;2361;49.540;8.390;2023-06-24T10:27:08;4.10;;;3.27;;
4694;SDS011;2361;49.540;8.390;2023-06-24T10:29:51;4.77;;;3.20;;
4694;SDS011;2361;49.540;8.390;2023-06-24T10:32:19;1.63;;;1.53;;
4694;SDS011;2361;49.540;8.390;2023-06-24T10:34:55;3.33;;;3.03;;
4694;SDS011;2361;49.540;8.390;2023-06-24T10:37:24;2.97;;;2.60;;
4694;SDS011;2361;49.540;8.390;2023-06-24T10:39:59;3.43;;;3.13;;
4694;SDS011;2361;49.540;8.390;2023-06-24T10:47:37;3.47;;;3.20;;
4694;SDS011;2361;49.540;8.390;2023-06-24T10:50:07;3.13;;;2.83;;
4694;SDS011;2361;49.540;8.390;2023-06-24T10:52:38;3.20;;;2.60;;
4694;SDS011;2361;49.540;8.390;2023-06-24T10:55:13;4.30;;;3.50;;
4694;SDS011;2361;49.540;8.390;2023-06-24T10:57:42;2.73;;;2.53;;
4694;SDS011;2361;49.540;8.390;2023-06-24T11:00:11;2.80;;;2.60;;
4694;SDS011;2361;49.540;8.390;2023-06-24T11:02:40;3.00;;;2.80;;
4694;SDS011;2361;49.540;8.390;2023-06-24T11:05:07;3.33;;;3.03;;
4694;SDS011;2361;49.540;8.390;2023-06-24T11:07:36;2.90;;;2.70;;
4694;SDS011;2361;49.540;8.390;2023-06-24T11:10:05;3.43;;;2.87;;
4694;SDS011;2361;49.540;8.390;2023-06-24T11:12:39;2.87;;;2.67;;
4694;SDS011;2361;49.540;8.390;2023-06-24T11:15:08;3.10;;;2.90;;
4694;SDS011;2361;49.540;8.390;2023-06-24T11:17:39;2.77;;;2.57;;
4694;SDS011;2361;49.540;8.390;2023-06-24T11:20:08;2.03;;;1.93;;
4694;SDS011;2361;49.540;8.390;2023-06-24T11:22:40;4.80;;;2.30;;
4694;SDS011;2361;49.540;8.390;2023-06-24T11:25:15;4.07;;;3.70;;
4694;SDS011;2361;49.540;8.390;2023-06-24T11:27:44;7.10;;;5.80;;
4694;SDS011;2361;49.540;8.390;2023-06-24T11:30:11;4.13;;;3.67;;
4694;SDS011;2361;49.540;8.390;2023-06-24T11:32:40;4.27;;;2.67;;
4694;SDS011;2361;49.540;8.390;2023-06-24T11:35:09;3.10;;;2.77;;
4694;SDS011;2361;49.540;8.390;2023-06-24T11:37:40;3.93;;;3.63;;
4694;SDS011;2361;49.540;8.390;2023-06-24T11:40:12;5.60;;;4.23;;
4694;SDS011;2361;49.540;8.390;2023-06-24T11:42:42;4.43;;;4.00;;
4694;SDS011;2361;49.540;8.390;2023-06-24T11:45:12;4.23;;;3.83;;
4694;SDS011;2361;49.540;8.390;2023-06-24T11:47:42;5.07;;;3.80;;
4694;SDS011;2361;49.540;8.390;2023-06-24T11:50:09;6.57;;;4.60;;
4694;SDS011;2361;49.540;8.390;2023-06-24T11:52:40;4.50;;;4.10;;
4694;SDS011;2361;49.540;8.390;2023-06-24T11:55:11;3.43;;;3.13;;
4694;SDS011;2361;49.540;8.390;2023-06-24T12:00:31;4.27;;;3.87;;
4694;SDS011;2361;49.540;8.390;2023-06-24T12:03:04;3.37;;;3.10;;
4694;SDS011;2361;49.540;8.390;2023-06-24T12:05:36;3.23;;;3.03;;
4694;SDS011;2361;49.540;8.390;2023-06-24T12:08:06;3.47;;;3.17;;
4694;SDS011;2361;49.540;8.390;2023-06-24T12:10:36;3.70;;;3.20;;
4694;SDS011;2361;49.540;8.390;2023-06-24T12:13:05;4.10;;;3.70;;
4694;SDS011;2361;49.540;8.390;2023-06-24T12:15:34;4.00;;;3.60;;
4694;SDS011;2361;49.540;8.390;2023-06-24T12:18:02;3.93;;;2.97;;
4694;SDS011;2361;49.540;8.390;2023-06-24T12:20:29;6.23;;;4.70;;
4694;SDS011;2361;49.540;8.390;2023-06-24T12:23:00;4.50;;;4.10;;
4694;SDS011;2361;49.540;8.390;2023-06-24T12:25:27;4.60;;;4.20;;
4694;SDS011;2361;49.540;8.390;2023-06-24T12:27:54;3.17;;;2.90;;
4694;SDS011;2361;49.540;8.390;2023-06-24T12:30:21;4.40;;;4.00;;
4694;SDS011;2361;49.540;8.390;2023-06-24T12:32:52;4.00;;;3.70;;
4694;SDS011;2361;49.540;8.390;2023-06-24T12:35:19;4.10;;;3.80;;
4694;SDS011;2361;49.540;8.390;2023-06-24T12:37:46;3.33;;;3.13;;
4694;SDS011;2361;49.540;8.390;2023-06-24T12:40:14;5.00;;;3.70;;
4694;SDS011;2361;49.540;8.390;2023-06-24T12:42:41;4.20;;;3.90;;
4694;SDS011;2361;49.540;8.390;2023-06-24T12:45:08;4.00;;;3.70;;
4694;SDS011;2361;49.540;8.390;2023-06-24T12:47:35;5.40;;;4.90;;
4694;SDS011;2361;49.540;8.390;2023-06-24T12:50:02;3.40;;;3.10;;
4694;SDS011;2361;49.540;8.390;2023-06-24T12:52:34;3.20;;;3.00;;
4694;SDS011;2361;49.540;8.390;2023-06-24T12:55:01;2.50;;;2.30;;
4694;SDS011;2361;49.540;8.390;2023-06-24T12:57:30;4.60;;;4.20;;
4694;SDS011;2361;49.540;8.390;2023-06-24T12:59:57;4.27;;;3.97;;
4694;SDS011;2361;49.540;8.390;2023-06-24T13:02:24;3.70;;;3.40;;
4694;SDS011;2361;49.540;8.390;2023-06-24T13:04:51;3.67;;;3.23;;
4694;SDS011;2361;49.540;8.390;2023-06-24T13:07:18;4.00;;;3.60;;
4694;SDS011;2361;49.540;8.390;2023-06-24T13:09:45;3.70;;;3.40;;
4694;SDS011;2361;49.540;8.390;2023-06-24T13:12:12;5.03;;;3.60;;
4694;SDS011;2361;49.540;8.390;2023-06-24T13:14:39;2.50;;;2.30;;
4694;SDS011;2361;49.540;8.390;2023-06-24T13:17:06;3.80;;;2.63;;
4694;SDS011;2361;49.540;8.390;2023-06-24T13:19:33;3.70;;;3.43;;
4694;SDS011;2361;49.540;8.390;2023-06-24T13:22:00;4.03;;;3.60;;
4694;SDS011;2361;49.540;8.390;2023-06-24T13:24:27;4.97;;;3.50;;
4694;SDS011;2361;49.540;8.390;2023-06-24T13:26:54;3.90;;;3.53;;
4694;SDS011;2361;49.540;8.390;2023-06-24T13:29:21;3.67;;;3.37;;
4694;SDS011;2361;49.540;8.390;2023-06-24T13:31:48;3.30;;;3.10;;
4694;SDS011;2361;49.540;8.390;2023-06-24T13:34:15;4.30;;;4.00;;
4694;SDS011;2361;49.540;8.390;2023-06-24T13:36:42;4.20;;;2.90;;
4694;SDS011;2361;49.540;8.390;2023-06-24T13:39:09;3.73;;;3.43;;
4694;SDS011;2361;49.540;8.390;2023-06-24T13:41:39;3.60;;;3.30;;
4694;SDS011;2361;49.540;8.390;2023-06-24T13:44:07;3.93;;;3.53;;
4694;SDS011;2361;49.540;8.390;2023-06-24T13:46:34;4.30;;;3.90;;
4694;SDS011;2361;49.540;8.390;2023-06-24T13:49:01;3.87;;;3.57;;
4694;SDS011;2361;49.540;8.390;2023-06-24T13:51:31;3.93;;;3.63;;
4694;SDS011;2361;49.540;8.390;2023-06-24T13:53:58;3.37;;;3.07;;
4694;SDS011;2361;49.540;8.390;2023-06-24T13:56:26;4.20;;;2.90;;
4694;SDS011;2361;49.540;8.390;2023-06-24T13:58:53;4.20;;;3.80;;
4694;SDS011;2361;49.540;8.390;2023-06-24T14:01:21;3.20;;;2.90;;
4694;SDS011;2361;49.540;8.390;2023-06-24T14:03:49;4.20;;;3.80;;
4694;SDS011;2361;49.540;8.390;2023-06-24T14:06:18;4.13;;;3.60;;
4694;SDS011;2361;49.540;8.390;2023-06-24T14:08:48;3.23;;;3.03;;
4694;SDS011;2361;49.540;8.390;2023-06-24T14:11:16;3.10;;;2.90;;
4694;SDS011;2361;49.540;8.390;2023-06-24T14:13:44;4.20;;;3.70;;
4694;SDS011;2361;49.540;8.390;2023-06-24T14:16:11;3.97;;;3.77;;
4694;SDS011;2361;49.540;8.390;2023-06-24T14:18:38;3.87;;;3.50;;
4694;SDS011;2361;49.540;8.390;2023-06-24T14:21:06;3.30;;;3.10;;
4694;SDS011;2361;49.540;8.390;2023-06-24T14:23:33;4.07;;;3.67;;
4694;SDS011;2361;49.540;8.390;2023-06-24T14:26:02;3.50;;;3.20;;
4694;SDS011;2361;49.540;8.390;2023-06-24T14:28:29;3.63;;;3.33;;
4694;SDS011;2361;49.540;8.390;2023-06-24T14:30:56;3.00;;;2.77;;
4694;SDS011;2361;49.540;8.390;2023-06-24T14:33:23;3.03;;;2.73;;
4694;SDS011;2361;49.540;8.390;2023-06-24T14:35:50;3.47;;;3.20;;
4694;SDS011;2361;49.540;8.390;2023-06-24T14:38:17;2.70;;;2.50;;
4694;SDS011;2361;49.540;8.390;2023-06-24T14:40:45;3.50;;;3.20;;
4694;SDS011;2361;49.540;8.390;2023-06-24T14:43:12;3.03;;;2.83;;
4694;SDS011;2361;49.540;8.390;2023-06-24T14:45:39;2.83;;;2.63;;
4694;SDS011;2361;49.540;8.390;2023-06-24T14:48:06;3.67;;;3.37;;
4694;SDS011;2361;49.540;8.390;2023-06-24T14:50:33;3.53;;;3.23;;
4694;SDS011;2361;49.540;8.390;2023-06-24T14:53:01;2.50;;;2.30;;
4694;SDS011;2361;49.540;8.390;2023-06-24T14:55:29;3.77;;;3.37;;
4694;SDS011;2361;49.540;8.390;2023-06-24T14:57:56;2.83;;;2.63;;
4694;SDS011;2361;49.540;8.390;2023-06-24T15:00:23;4.67;;;3.37;;
4694;SDS011;2361;49.540;8.390;2023-06-24T15:02:50;2.63;;;2.43;;
4694;SDS011;2361;49.540;8.390;2023-06-24T15:05:17;2.57;;;2.37;;
4694;SDS011;2361;49.540;8.390;2023-06-24T15:07:44;2.53;;;2.33;;
4694;SDS011;2361;49.540;8.390;2023-06-24T15:10:11;3.00;;;2.80;;
4694;SDS011;2361;49.540;8.390;2023-06-24T15:12:38;3.23;;;2.90;;
4694;SDS011;2361;49.540;8.390;2023-06-24T15:15:06;3.17;;;2.97;;
4694;SDS011;2361;49.540;8.390;2023-06-24T15:17:33;3.47;;;3.17;;
4694;SDS011;2361;49.540;8.390;2023-06-24T15:20:02;3.27;;;3.07;;
4694;SDS011;2361;49.540;8.390;2023-06-24T15:22:29;2.63;;;2.50;;
4694;SDS011;2361;49.540;8.390;2023-06-24T15:24:56;2.83;;;2.63;;
4694;SDS011;2361;49.540;8.390;2023-06-24T15:27:23;2.60;;;2.10;;
4694;SDS011;2361;49.540;8.390;2023-06-24T15:29:50;3.17;;;3.00;;
4694;SDS011;2361;49.540;8.390;2023-06-24T15:32:17;4.00;;;3.70;;
4694;SDS011;2361;49.540;8.390;2023-06-24T15:34:44;2.77;;;2.57;;
4694;SDS011;2361;49.540;8.390;2023-06-24T15:37:11;3.20;;;2.90;;
4694;SDS011;2361;49.540;8.390;2023-06-24T15:39:40;3.37;;;3.10;;
4694;SDS011;2361;49.540;8.390;2023-06-24T15:42:08;3.43;;;3.20;;
4694;SDS011;2361;49.540;8.390;2023-06-24T15:44:36;3.63;;;3.33;;